sensor_id;sensor_type;location;lat;lon;timestamp;P1;durP1;ratioP1;P2;durP2;ratioP2
5199;SDS011;2619;47.868;11.892;2023-04-03T00:01:05;17.23;;;9.80;;
5199;SDS011;2619;47.868;11.892;2023-04-03T00:03:31;15.30;;;9.37;;
5199;SDS011;2619;47.868;11.892;2023-04-03T00:05:57;15.37;;;9.50;;
5199;SDS011;2619;47.868;11.892;2023-04-03T00:08:23;16.90;;;9.80;;
5199;SDS011;2619;47.868;11.892;2023-04-03T00:10:49;15.00;;;9.70;;
5199;SDS011;2619;47.868;11.892;2023-04-03T00:13:14;15.67;;;9.33;;
5199;SDS011;2619;47.868;11.892;2023-04-03T00:15:40;17.23;;;9.70;;
5199;SDS011;2619;47.868;11.892;2023-04-03T00:18:06;14.67;;;9.60;;
5199;SDS011;2619;47.868;11.892;2023-04-03T00:20:33;19.10;;;10.47;;
5199;SDS011;2619;47.868;11.892;2023-04-03T00:22:59;17.67;;;10.30;;
5199;SDS011;2619;47.868;11.892;2023-04-03T00:25:25;19.43;;;10.30;;
5199;SDS011;2619;47.868;11.892;2023-04-03T00:27:51;16.90;;;9.73;;
5199;SDS011;2619;47.868;11.892;2023-04-03T00:30:17;18.37;;;10.47;;
5199;SDS011;2619;47.868;11.892;2023-04-03T00:32:47;18.07;;;11.30;;
5199;SDS011;2619;47.868;11.892;2023-04-03T00:35:13;16.73;;;10.00;;
5199;SDS011;2619;47.868;11.892;2023-04-03T00:37:41;17.77;;;10.40;;
5199;SDS011;2619;47.868;11.892;2023-04-03T00:40:07;20.60;;;10.93;;
5199;SDS011;2619;47.868;11.892;2023-04-03T00:42:33;16.43;;;10.77;;
5199;SDS011;2619;47.868;11.892;2023-04-03T00:47:25;19.07;;;10.40;;
5199;SDS011;2619;47.868;11.892;2023-04-03T00:49:52;16.60;;;9.30;;
5199;SDS011;2619;47.868;11.892;2023-04-03T00:52:19;14.90;;;8.83;;
5199;SDS011;2619;47.868;11.892;2023-04-03T00:54:49;18.00;;;10.07;;
5199;SDS011;2619;47.868;11.892;2023-04-03T00:57:17;14.87;;;10.10;;
5199;SDS011;2619;47.868;11.892;2023-04-03T00:59:44;17.63;;;10.30;;
5199;SDS011;2619;47.868;11.892;2023-04-03T01:02:14;17.80;;;10.60;;
5199;SDS011;2619;47.868;11.892;2023-04-03T01:04:40;15.67;;;9.60;;
5199;SDS011;2619;47.868;11.892;2023-04-03T01:07:15;15.27;;;9.60;;
5199;SDS011;2619;47.868;11.892;2023-04-03T01:09:44;18.90;;;9.30;;
5199;SDS011;2619;47.868;11.892;2023-04-03T01:14:45;15.13;;;9.40;;
5199;SDS011;2619;47.868;11.892;2023-04-03T01:17:30;16.90;;;8.90;;
5199;SDS011;2619;47.868;11.892;2023-04-03T01:20:12;19.73;;;9.97;;
5199;SDS011;2619;47.868;11.892;2023-04-03T01:25:35;16.97;;;9.87;;
5199;SDS011;2619;47.868;11.892;2023-04-03T01:28:07;18.33;;;10.47;;
5199;SDS011;2619;47.868;11.892;2023-04-03T01:30:35;13.47;;;8.30;;
5199;SDS011;2619;47.868;11.892;2023-04-03T01:33:06;15.87;;;8.27;;
5199;SDS011;2619;47.868;11.892;2023-04-03T01:35:32;14.80;;;8.23;;
5199;SDS011;2619;47.868;11.892;2023-04-03T01:37:57;17.00;;;10.27;;
5199;SDS011;2619;47.868;11.892;2023-04-03T01:40:23;14.50;;;8.17;;
5199;SDS011;2619;47.868;11.892;2023-04-03T01:42:48;14.37;;;8.70;;
5199;SDS011;2619;47.868;11.892;2023-04-03T01:45:14;16.20;;;9.03;;
5199;SDS011;2619;47.868;11.892;2023-04-03T01:47:40;15.03;;;9.07;;
5199;SDS011;2619;47.868;11.892;2023-04-03T01:50:05;15.93;;;9.10;;
5199;SDS011;2619;47.868;11.892;2023-04-03T01:52:31;16.30;;;9.37;;
5199;SDS011;2619;47.868;11.892;2023-04-03T01:54:57;15.30;;;8.63;;
5199;SDS011;2619;47.868;11.892;2023-04-03T01:57:22;18.33;;;9.70;;
5199;SDS011;2619;47.868;11.892;2023-04-03T01:59:48;16.70;;;8.53;;
5199;SDS011;2619;47.868;11.892;2023-04-03T02:02:13;12.80;;;7.77;;
5199;SDS011;2619;47.868;11.892;2023-04-03T02:04:40;16.70;;;9.40;;
5199;SDS011;2619;47.868;11.892;2023-04-03T02:07:06;13.50;;;8.77;;
5199;SDS011;2619;47.868;11.892;2023-04-03T02:09:31;15.20;;;8.23;;
5199;SDS011;2619;47.868;11.892;2023-04-03T02:11:57;12.23;;;7.40;;
5199;SDS011;2619;47.868;11.892;2023-04-03T02:14:22;14.93;;;9.13;;
5199;SDS011;2619;47.868;11.892;2023-04-03T02:16:48;18.60;;;10.17;;
5199;SDS011;2619;47.868;11.892;2023-04-03T02:19:14;13.93;;;8.00;;
5199;SDS011;2619;47.868;11.892;2023-04-03T02:21:40;12.53;;;8.00;;
5199;SDS011;2619;47.868;11.892;2023-04-03T02:24:06;12.30;;;8.27;;
5199;SDS011;2619;47.868;11.892;2023-04-03T02:26:31;14.70;;;9.03;;
5199;SDS011;2619;47.868;11.892;2023-04-03T02:28:57;14.97;;;8.40;;
5199;SDS011;2619;47.868;11.892;2023-04-03T02:31:22;12.03;;;7.87;;
5199;SDS011;2619;47.868;11.892;2023-04-03T02:33:49;15.00;;;8.00;;
5199;SDS011;2619;47.868;11.892;2023-04-03T02:36:15;15.37;;;9.40;;
5199;SDS011;2619;47.868;11.892;2023-04-03T02:38:40;11.97;;;7.87;;
5199;SDS011;2619;47.868;11.892;2023-04-03T02:41:07;17.30;;;10.47;;
5199;SDS011;2619;47.868;11.892;2023-04-03T02:43:35;19.50;;;9.80;;
5199;SDS011;2619;47.868;11.892;2023-04-03T02:46:01;17.60;;;9.70;;
5199;SDS011;2619;47.868;11.892;2023-04-03T02:48:27;16.43;;;9.57;;
5199;SDS011;2619;47.868;11.892;2023-04-03T02:50:53;18.70;;;9.07;;
5199;SDS011;2619;47.868;11.892;2023-04-03T02:53:19;16.30;;;9.80;;
5199;SDS011;2619;47.868;11.892;2023-04-03T02:55:45;16.00;;;9.63;;
5199;SDS011;2619;47.868;11.892;2023-04-03T02:58:11;13.77;;;9.03;;
5199;SDS011;2619;47.868;11.892;2023-04-03T03:00:36;15.27;;;9.10;;
5199;SDS011;2619;47.868;11.892;2023-04-03T03:03:02;14.27;;;8.90;;
5199;SDS011;2619;47.868;11.892;2023-04-03T03:05:29;17.00;;;9.57;;
5199;SDS011;2619;47.868;11.892;2023-04-03T03:07:55;15.97;;;9.27;;
5199;SDS011;2619;47.868;11.892;2023-04-03T03:10:21;13.83;;;7.83;;
5199;SDS011;2619;47.868;11.892;2023-04-03T03:12:47;18.13;;;9.20;;
5199;SDS011;2619;47.868;11.892;2023-04-03T03:15:13;14.43;;;8.00;;
5199;SDS011;2619;47.868;11.892;2023-04-03T03:17:40;13.93;;;8.00;;
5199;SDS011;2619;47.868;11.892;2023-04-03T03:20:06;14.93;;;9.40;;
5199;SDS011;2619;47.868;11.892;2023-04-03T03:22:32;16.10;;;8.20;;
5199;SDS011;2619;47.868;11.892;2023-04-03T03:24:59;14.50;;;9.07;;
5199;SDS011;2619;47.868;11.892;2023-04-03T03:27:26;13.23;;;9.00;;
5199;SDS011;2619;47.868;11.892;2023-04-03T03:29:51;13.03;;;8.90;;
5199;SDS011;2619;47.868;11.892;2023-04-03T03:32:17;12.73;;;8.43;;
5199;SDS011;2619;47.868;11.892;2023-04-03T03:34:42;13.03;;;8.10;;
5199;SDS011;2619;47.868;11.892;2023-04-03T03:37:08;16.87;;;9.97;;
5199;SDS011;2619;47.868;11.892;2023-04-03T03:39:34;14.83;;;8.73;;
5199;SDS011;2619;47.868;11.892;2023-04-03T03:42:00;16.30;;;8.83;;
5199;SDS011;2619;47.868;11.892;2023-04-03T03:44:25;14.37;;;8.13;;
5199;SDS011;2619;47.868;11.892;2023-04-03T03:46:51;15.87;;;7.80;;
5199;SDS011;2619;47.868;11.892;2023-04-03T03:49:16;14.63;;;9.30;;
5199;SDS011;2619;47.868;11.892;2023-04-03T03:51:42;15.63;;;9.60;;
5199;SDS011;2619;47.868;11.892;2023-04-03T03:54:07;14.70;;;9.23;;
5199;SDS011;2619;47.868;11.892;2023-04-03T03:56:34;18.87;;;10.40;;
5199;SDS011;2619;47.868;11.892;2023-04-03T03:59:00;16.87;;;8.43;;
5199;SDS011;2619;47.868;11.892;2023-04-03T04:01:25;12.27;;;8.07;;
5199;SDS011;2619;47.868;11.892;2023-04-03T04:03:51;14.03;;;7.73;;
5199;SDS011;2619;47.868;11.892;2023-04-03T04:06:18;14.13;;;9.77;;
5199;SDS011;2619;47.868;11.892;2023-04-03T04:08:44;15.00;;;8.57;;
5199;SDS011;2619;47.868;11.892;2023-04-03T04:11:10;14.47;;;8.20;;
5199;SDS011;2619;47.868;11.892;2023-04-03T04:13:35;11.50;;;7.43;;
5199;SDS011;2619;47.868;11.892;2023-04-03T04:16:01;11.70;;;7.73;;
5199;SDS011;2619;47.868;11.892;2023-04-03T04:18:27;15.23;;;8.27;;
5199;SDS011;2619;47.868;11.892;2023-04-03T04:20:52;13.67;;;8.53;;
5199;SDS011;2619;47.868;11.892;2023-04-03T04:23:18;12.60;;;8.37;;
5199;SDS011;2619;47.868;11.892;2023-04-03T04:25:45;11.37;;;7.90;;
5199;SDS011;2619;47.868;11.892;2023-04-03T04:28:11;13.20;;;7.80;;
5199;SDS011;2619;47.868;11.892;2023-04-03T04:30:37;11.50;;;6.90;;
5199;SDS011;2619;47.868;11.892;2023-04-03T04:33:03;11.60;;;7.50;;
5199;SDS011;2619;47.868;11.892;2023-04-03T04:35:28;14.33;;;8.70;;
5199;SDS011;2619;47.868;11.892;2023-04-03T04:37:54;14.70;;;9.10;;
5199;SDS011;2619;47.868;11.892;2023-04-03T04:40:20;12.40;;;7.57;;
5199;SDS011;2619;47.868;11.892;2023-04-03T04:42:45;12.67;;;7.60;;
5199;SDS011;2619;47.868;11.892;2023-04-03T04:45:11;12.17;;;7.00;;
5199;SDS011;2619;47.868;11.892;2023-04-03T04:47:37;14.90;;;7.50;;
5199;SDS011;2619;47.868;11.892;2023-04-03T04:50:03;13.23;;;7.53;;
5199;SDS011;2619;47.868;11.892;2023-04-03T04:52:29;11.60;;;7.47;;
5199;SDS011;2619;47.868;11.892;2023-04-03T04:54:54;12.40;;;7.07;;
5199;SDS011;2619;47.868;11.892;2023-04-03T04:57:20;13.40;;;8.13;;
5199;SDS011;2619;47.868;11.892;2023-04-03T04:59:46;12.70;;;8.00;;
5199;SDS011;2619;47.868;11.892;2023-04-03T05:02:11;14.40;;;8.43;;
5199;SDS011;2619;47.868;11.892;2023-04-03T05:04:37;14.20;;;8.03;;
5199;SDS011;2619;47.868;11.892;2023-04-03T05:07:02;10.87;;;7.97;;
5199;SDS011;2619;47.868;11.892;2023-04-03T05:09:28;12.83;;;8.63;;
5199;SDS011;2619;47.868;11.892;2023-04-03T05:11:54;12.60;;;7.83;;
5199;SDS011;2619;47.868;11.892;2023-04-03T05:14:21;12.97;;;8.20;;
5199;SDS011;2619;47.868;11.892;2023-04-03T05:16:46;12.03;;;7.60;;
5199;SDS011;2619;47.868;11.892;2023-04-03T05:19:12;12.47;;;8.07;;
5199;SDS011;2619;47.868;11.892;2023-04-03T05:21:38;11.30;;;7.57;;
5199;SDS011;2619;47.868;11.892;2023-04-03T05:24:04;16.30;;;7.90;;
5199;SDS011;2619;47.868;11.892;2023-04-03T05:26:30;10.63;;;7.90;;
5199;SDS011;2619;47.868;11.892;2023-04-03T05:28:56;10.70;;;7.83;;
5199;SDS011;2619;47.868;11.892;2023-04-03T05:31:22;11.47;;;7.23;;
5199;SDS011;2619;47.868;11.892;2023-04-03T05:33:48;12.20;;;7.63;;
5199;SDS011;2619;47.868;11.892;2023-04-03T05:36:14;10.30;;;7.50;;
5199;SDS011;2619;47.868;11.892;2023-04-03T05:38:40;11.80;;;7.20;;
5199;SDS011;2619;47.868;11.892;2023-04-03T05:41:05;11.47;;;8.20;;
5199;SDS011;2619;47.868;11.892;2023-04-03T05:43:31;12.70;;;8.03;;
5199;SDS011;2619;47.868;11.892;2023-04-03T05:45:57;14.10;;;8.50;;
5199;SDS011;2619;47.868;11.892;2023-04-03T05:48:23;11.83;;;8.53;;
5199;SDS011;2619;47.868;11.892;2023-04-03T05:50:48;12.53;;;7.20;;
5199;SDS011;2619;47.868;11.892;2023-04-03T05:53:19;12.73;;;8.13;;
5199;SDS011;2619;47.868;11.892;2023-04-03T05:55:49;12.13;;;7.90;;
5199;SDS011;2619;47.868;11.892;2023-04-03T05:58:15;15.33;;;7.70;;
5199;SDS011;2619;47.868;11.892;2023-04-03T06:00:41;12.30;;;7.77;;
5199;SDS011;2619;47.868;11.892;2023-04-03T06:03:06;12.30;;;8.23;;
5199;SDS011;2619;47.868;11.892;2023-04-03T06:05:32;13.70;;;8.43;;
5199;SDS011;2619;47.868;11.892;2023-04-03T06:07:57;11.00;;;7.30;;
5199;SDS011;2619;47.868;11.892;2023-04-03T06:10:23;12.30;;;7.37;;
5199;SDS011;2619;47.868;11.892;2023-04-03T06:12:49;11.70;;;7.23;;
5199;SDS011;2619;47.868;11.892;2023-04-03T06:15:15;12.30;;;7.50;;
5199;SDS011;2619;47.868;11.892;2023-04-03T06:17:41;11.70;;;6.73;;
5199;SDS011;2619;47.868;11.892;2023-04-03T06:20:08;11.80;;;7.40;;
5199;SDS011;2619;47.868;11.892;2023-04-03T06:22:34;11.83;;;7.20;;
5199;SDS011;2619;47.868;11.892;2023-04-03T06:25:00;15.60;;;8.00;;
5199;SDS011;2619;47.868;11.892;2023-04-03T06:27:26;12.00;;;7.00;;
5199;SDS011;2619;47.868;11.892;2023-04-03T06:29:51;18.13;;;7.53;;
5199;SDS011;2619;47.868;11.892;2023-04-03T06:32:17;10.00;;;6.77;;
5199;SDS011;2619;47.868;11.892;2023-04-03T06:34:42;11.27;;;7.23;;
5199;SDS011;2619;47.868;11.892;2023-04-03T06:37:15;12.67;;;7.20;;
5199;SDS011;2619;47.868;11.892;2023-04-03T06:39:43;10.40;;;7.00;;
5199;SDS011;2619;47.868;11.892;2023-04-03T06:42:08;9.73;;;7.10;;
5199;SDS011;2619;47.868;11.892;2023-04-03T06:44:34;10.33;;;6.90;;
5199;SDS011;2619;47.868;11.892;2023-04-03T06:47:00;12.00;;;7.20;;
5199;SDS011;2619;47.868;11.892;2023-04-03T06:49:26;12.57;;;7.87;;
5199;SDS011;2619;47.868;11.892;2023-04-03T06:51:51;11.80;;;7.77;;
5199;SDS011;2619;47.868;11.892;2023-04-03T06:54:17;10.43;;;7.37;;
5199;SDS011;2619;47.868;11.892;2023-04-03T06:56:43;10.23;;;7.30;;
5199;SDS011;2619;47.868;11.892;2023-04-03T06:59:10;10.90;;;7.10;;
5199;SDS011;2619;47.868;11.892;2023-04-03T07:01:38;13.40;;;7.30;;
5199;SDS011;2619;47.868;11.892;2023-04-03T07:04:04;10.00;;;7.17;;
5199;SDS011;2619;47.868;11.892;2023-04-03T07:06:30;10.40;;;6.93;;
5199;SDS011;2619;47.868;11.892;2023-04-03T07:08:57;9.60;;;6.67;;
5199;SDS011;2619;47.868;11.892;2023-04-03T07:11:23;11.60;;;6.63;;
5199;SDS011;2619;47.868;11.892;2023-04-03T07:13:49;12.53;;;7.47;;
5199;SDS011;2619;47.868;11.892;2023-04-03T07:16:15;11.13;;;7.27;;
5199;SDS011;2619;47.868;11.892;2023-04-03T07:18:40;12.80;;;6.90;;
5199;SDS011;2619;47.868;11.892;2023-04-03T07:21:06;10.10;;;7.30;;
5199;SDS011;2619;47.868;11.892;2023-04-03T07:23:32;8.17;;;6.27;;
5199;SDS011;2619;47.868;11.892;2023-04-03T07:25:58;10.87;;;6.80;;
5199;SDS011;2619;47.868;11.892;2023-04-03T07:28:24;9.33;;;6.17;;
5199;SDS011;2619;47.868;11.892;2023-04-03T07:30:59;10.37;;;6.77;;
5199;SDS011;2619;47.868;11.892;2023-04-03T07:33:26;11.87;;;7.77;;
5199;SDS011;2619;47.868;11.892;2023-04-03T07:35:52;9.90;;;6.87;;
5199;SDS011;2619;47.868;11.892;2023-04-03T07:38:18;7.50;;;5.60;;
5199;SDS011;2619;47.868;11.892;2023-04-03T07:40:47;9.33;;;6.23;;
5199;SDS011;2619;47.868;11.892;2023-04-03T07:43:14;8.73;;;5.60;;
5199;SDS011;2619;47.868;11.892;2023-04-03T07:45:40;8.60;;;6.00;;
5199;SDS011;2619;47.868;11.892;2023-04-03T07:48:06;6.70;;;5.87;;
5199;SDS011;2619;47.868;11.892;2023-04-03T07:50:32;5.97;;;4.47;;
5199;SDS011;2619;47.868;11.892;2023-04-03T07:52:58;11.03;;;5.80;;
5199;SDS011;2619;47.868;11.892;2023-04-03T07:55:24;6.20;;;4.87;;
5199;SDS011;2619;47.868;11.892;2023-04-03T07:57:50;8.10;;;5.00;;
5199;SDS011;2619;47.868;11.892;2023-04-03T08:00:16;7.63;;;4.43;;
5199;SDS011;2619;47.868;11.892;2023-04-03T08:02:43;6.27;;;4.87;;
5199;SDS011;2619;47.868;11.892;2023-04-03T08:05:09;6.67;;;4.67;;
5199;SDS011;2619;47.868;11.892;2023-04-03T08:07:36;9.60;;;5.33;;
5199;SDS011;2619;47.868;11.892;2023-04-03T08:10:02;7.70;;;5.10;;
5199;SDS011;2619;47.868;11.892;2023-04-03T08:12:28;8.23;;;4.63;;
5199;SDS011;2619;47.868;11.892;2023-04-03T08:14:54;6.70;;;4.80;;
5199;SDS011;2619;47.868;11.892;2023-04-03T08:17:20;5.13;;;4.60;;
5199;SDS011;2619;47.868;11.892;2023-04-03T08:19:46;6.47;;;4.27;;
5199;SDS011;2619;47.868;11.892;2023-04-03T08:22:12;6.20;;;4.23;;
5199;SDS011;2619;47.868;11.892;2023-04-03T08:24:37;6.10;;;4.00;;
5199;SDS011;2619;47.868;11.892;2023-04-03T08:27:03;5.40;;;4.07;;
5199;SDS011;2619;47.868;11.892;2023-04-03T08:29:29;6.97;;;4.13;;
5199;SDS011;2619;47.868;11.892;2023-04-03T08:31:54;5.23;;;3.80;;
5199;SDS011;2619;47.868;11.892;2023-04-03T08:34:20;6.33;;;4.40;;
5199;SDS011;2619;47.868;11.892;2023-04-03T08:36:46;5.77;;;4.47;;
5199;SDS011;2619;47.868;11.892;2023-04-03T08:39:11;9.07;;;4.70;;
5199;SDS011;2619;47.868;11.892;2023-04-03T08:41:38;7.00;;;4.10;;
5199;SDS011;2619;47.868;11.892;2023-04-03T08:44:10;8.03;;;4.33;;
5199;SDS011;2619;47.868;11.892;2023-04-03T08:46:52;7.97;;;5.20;;
5199;SDS011;2619;47.868;11.892;2023-04-03T08:49:28;5.37;;;4.27;;
5199;SDS011;2619;47.868;11.892;2023-04-03T08:51:59;4.97;;;3.90;;
5199;SDS011;2619;47.868;11.892;2023-04-03T08:54:33;5.23;;;4.40;;
5199;SDS011;2619;47.868;11.892;2023-04-03T08:57:03;5.63;;;4.10;;
5199;SDS011;2619;47.868;11.892;2023-04-03T08:59:33;7.47;;;5.23;;
5199;SDS011;2619;47.868;11.892;2023-04-03T09:02:01;6.37;;;4.27;;
5199;SDS011;2619;47.868;11.892;2023-04-03T09:04:32;6.53;;;5.00;;
5199;SDS011;2619;47.868;11.892;2023-04-03T09:07:02;8.10;;;5.03;;
5199;SDS011;2619;47.868;11.892;2023-04-03T09:09:40;7.30;;;4.63;;
5199;SDS011;2619;47.868;11.892;2023-04-03T09:15:16;4.87;;;3.90;;
5199;SDS011;2619;47.868;11.892;2023-04-03T09:20:34;5.47;;;4.20;;
5199;SDS011;2619;47.868;11.892;2023-04-03T09:23:28;7.50;;;4.40;;
5199;SDS011;2619;47.868;11.892;2023-04-03T09:26:09;5.77;;;4.77;;
5199;SDS011;2619;47.868;11.892;2023-04-03T09:28:42;6.10;;;4.43;;
5199;SDS011;2619;47.868;11.892;2023-04-03T09:31:52;8.03;;;5.77;;
5199;SDS011;2619;47.868;11.892;2023-04-03T09:34:05;6.07;;;4.07;;
5199;SDS011;2619;47.868;11.892;2023-04-03T09:36:39;9.80;;;5.00;;
5199;SDS011;2619;47.868;11.892;2023-04-03T09:39:11;5.60;;;4.57;;
5199;SDS011;2619;47.868;11.892;2023-04-03T09:41:39;6.10;;;5.07;;
5199;SDS011;2619;47.868;11.892;2023-04-03T09:44:18;7.87;;;5.67;;
5199;SDS011;2619;47.868;11.892;2023-04-03T09:46:46;5.50;;;3.90;;
5199;SDS011;2619;47.868;11.892;2023-04-03T09:49:12;8.23;;;4.20;;
5199;SDS011;2619;47.868;11.892;2023-04-03T09:51:38;6.50;;;4.10;;
5199;SDS011;2619;47.868;11.892;2023-04-03T09:54:23;8.20;;;4.13;;
5199;SDS011;2619;47.868;11.892;2023-04-03T09:56:55;7.97;;;4.63;;
5199;SDS011;2619;47.868;11.892;2023-04-03T09:59:22;6.57;;;5.10;;
5199;SDS011;2619;47.868;11.892;2023-04-03T10:01:58;8.67;;;4.53;;
5199;SDS011;2619;47.868;11.892;2023-04-03T10:04:36;6.53;;;4.60;;
5199;SDS011;2619;47.868;11.892;2023-04-03T10:07:04;5.83;;;4.03;;
5199;SDS011;2619;47.868;11.892;2023-04-03T10:09:56;6.53;;;3.80;;
5199;SDS011;2619;47.868;11.892;2023-04-03T10:12:45;5.40;;;3.60;;
5199;SDS011;2619;47.868;11.892;2023-04-03T10:15:15;7.43;;;5.30;;
5199;SDS011;2619;47.868;11.892;2023-04-03T10:31:15;5.60;;;4.43;;
5199;SDS011;2619;47.868;11.892;2023-04-03T10:36:48;6.00;;;4.13;;
5199;SDS011;2619;47.868;11.892;2023-04-03T10:45:01;4.60;;;3.83;;
5199;SDS011;2619;47.868;11.892;2023-04-03T10:47:51;4.83;;;4.00;;
5199;SDS011;2619;47.868;11.892;2023-04-03T10:50:38;5.43;;;4.00;;
5199;SDS011;2619;47.868;11.892;2023-04-03T10:53:14;3.90;;;3.03;;
5199;SDS011;2619;47.868;11.892;2023-04-03T10:55:46;4.70;;;3.23;;
5199;SDS011;2619;47.868;11.892;2023-04-03T10:58:36;4.00;;;2.50;;
5199;SDS011;2619;47.868;11.892;2023-04-03T11:01:02;3.20;;;2.60;;
5199;SDS011;2619;47.868;11.892;2023-04-03T11:03:38;3.80;;;2.70;;
5199;SDS011;2619;47.868;11.892;2023-04-03T11:06:13;2.93;;;2.13;;
5199;SDS011;2619;47.868;11.892;2023-04-03T11:08:51;3.13;;;2.20;;
5199;SDS011;2619;47.868;11.892;2023-04-03T11:11:24;3.63;;;2.40;;
5199;SDS011;2619;47.868;11.892;2023-04-03T11:14:01;3.93;;;2.57;;
5199;SDS011;2619;47.868;11.892;2023-04-03T11:16:41;3.43;;;2.50;;
5199;SDS011;2619;47.868;11.892;2023-04-03T11:19:21;3.57;;;2.50;;
5199;SDS011;2619;47.868;11.892;2023-04-03T11:24:50;3.03;;;2.20;;
5199;SDS011;2619;47.868;11.892;2023-04-03T11:27:30;3.23;;;1.90;;
5199;SDS011;2619;47.868;11.892;2023-04-03T11:30:05;3.17;;;2.27;;
5199;SDS011;2619;47.868;11.892;2023-04-03T11:32:48;2.70;;;2.00;;
5199;SDS011;2619;47.868;11.892;2023-04-03T11:35:53;4.43;;;2.60;;
5199;SDS011;2619;47.868;11.892;2023-04-03T11:38:28;3.30;;;2.47;;
5199;SDS011;2619;47.868;11.892;2023-04-03T11:41:01;3.30;;;2.63;;
5199;SDS011;2619;47.868;11.892;2023-04-03T11:43:30;3.53;;;2.70;;
5199;SDS011;2619;47.868;11.892;2023-04-03T11:46:03;3.90;;;2.60;;
5199;SDS011;2619;47.868;11.892;2023-04-03T11:50:58;4.23;;;3.30;;
5199;SDS011;2619;47.868;11.892;2023-04-03T11:53:47;5.17;;;3.23;;
5199;SDS011;2619;47.868;11.892;2023-04-03T12:01:45;4.20;;;3.57;;
5199;SDS011;2619;47.868;11.892;2023-04-03T12:04:23;7.03;;;3.73;;
5199;SDS011;2619;47.868;11.892;2023-04-03T12:07:00;5.00;;;4.17;;
5199;SDS011;2619;47.868;11.892;2023-04-03T12:15:19;5.73;;;3.20;;
5199;SDS011;2619;47.868;11.892;2023-04-03T12:17:46;4.90;;;3.60;;
5199;SDS011;2619;47.868;11.892;2023-04-03T12:26:48;4.60;;;4.00;;
5199;SDS011;2619;47.868;11.892;2023-04-03T12:37:08;5.90;;;3.90;;
5199;SDS011;2619;47.868;11.892;2023-04-03T12:45:23;6.20;;;4.07;;
5199;SDS011;2619;47.868;11.892;2023-04-03T12:47:50;4.63;;;3.30;;
5199;SDS011;2619;47.868;11.892;2023-04-03T12:53:05;5.77;;;3.30;;
5199;SDS011;2619;47.868;11.892;2023-04-03T12:55:36;6.10;;;3.33;;
5199;SDS011;2619;47.868;11.892;2023-04-03T12:58:15;4.20;;;3.00;;
5199;SDS011;2619;47.868;11.892;2023-04-03T13:00:46;5.83;;;3.47;;
5199;SDS011;2619;47.868;11.892;2023-04-03T13:03:25;5.20;;;3.37;;
5199;SDS011;2619;47.868;11.892;2023-04-03T13:05:52;4.90;;;3.30;;
5199;SDS011;2619;47.868;11.892;2023-04-03T13:08:23;4.07;;;3.30;;
5199;SDS011;2619;47.868;11.892;2023-04-03T13:11:23;3.97;;;3.00;;
5199;SDS011;2619;47.868;11.892;2023-04-03T13:13:56;3.37;;;2.83;;
5199;SDS011;2619;47.868;11.892;2023-04-03T13:16:23;4.60;;;3.30;;
5199;SDS011;2619;47.868;11.892;2023-04-03T13:18:50;4.20;;;3.30;;
5199;SDS011;2619;47.868;11.892;2023-04-03T13:21:18;6.10;;;3.50;;
5199;SDS011;2619;47.868;11.892;2023-04-03T13:23:58;5.50;;;3.53;;
5199;SDS011;2619;47.868;11.892;2023-04-03T13:26:30;5.27;;;4.03;;
5199;SDS011;2619;47.868;11.892;2023-04-03T13:28:59;4.27;;;3.57;;
5199;SDS011;2619;47.868;11.892;2023-04-03T13:31:31;4.53;;;3.20;;
5199;SDS011;2619;47.868;11.892;2023-04-03T13:34:11;5.60;;;3.50;;
5199;SDS011;2619;47.868;11.892;2023-04-03T13:36:39;5.77;;;3.87;;
5199;SDS011;2619;47.868;11.892;2023-04-03T13:41:44;4.10;;;3.67;;
5199;SDS011;2619;47.868;11.892;2023-04-03T13:46:51;5.37;;;4.07;;
5199;SDS011;2619;47.868;11.892;2023-04-03T13:51:55;6.53;;;4.10;;
5199;SDS011;2619;47.868;11.892;2023-04-03T13:54:34;3.93;;;3.53;;
5199;SDS011;2619;47.868;11.892;2023-04-03T13:57:02;7.50;;;4.40;;
5199;SDS011;2619;47.868;11.892;2023-04-03T13:59:36;5.43;;;3.90;;
5199;SDS011;2619;47.868;11.892;2023-04-03T14:04:29;5.03;;;3.93;;
5199;SDS011;2619;47.868;11.892;2023-04-03T14:06:56;6.63;;;4.10;;
5199;SDS011;2619;47.868;11.892;2023-04-03T14:09:23;4.77;;;3.80;;
5199;SDS011;2619;47.868;11.892;2023-04-03T14:11:53;4.90;;;3.53;;
5199;SDS011;2619;47.868;11.892;2023-04-03T14:14:23;4.60;;;3.80;;
5199;SDS011;2619;47.868;11.892;2023-04-03T14:16:53;4.90;;;3.90;;
5199;SDS011;2619;47.868;11.892;2023-04-03T14:22:01;3.17;;;2.87;;
5199;SDS011;2619;47.868;11.892;2023-04-03T14:24:37;4.07;;;3.57;;
5199;SDS011;2619;47.868;11.892;2023-04-03T14:27:05;5.00;;;3.37;;
5199;SDS011;2619;47.868;11.892;2023-04-03T14:29:56;9.63;;;3.80;;
5199;SDS011;2619;47.868;11.892;2023-04-03T14:32:23;5.37;;;3.87;;
5199;SDS011;2619;47.868;11.892;2023-04-03T14:34:50;4.90;;;3.80;;
5199;SDS011;2619;47.868;11.892;2023-04-03T14:37:21;5.13;;;3.67;;
5199;SDS011;2619;47.868;11.892;2023-04-03T14:39:50;4.17;;;3.30;;
5199;SDS011;2619;47.868;11.892;2023-04-03T14:42:17;4.13;;;3.47;;
5199;SDS011;2619;47.868;11.892;2023-04-03T14:44:51;4.37;;;3.57;;
5199;SDS011;2619;47.868;11.892;2023-04-03T14:47:19;4.70;;;3.20;;
5199;SDS011;2619;47.868;11.892;2023-04-03T14:49:46;7.80;;;3.80;;
5199;SDS011;2619;47.868;11.892;2023-04-03T14:54:57;4.63;;;3.70;;
5199;SDS011;2619;47.868;11.892;2023-04-03T14:57:24;6.07;;;3.63;;
5199;SDS011;2619;47.868;11.892;2023-04-03T14:59:51;6.50;;;4.10;;
5199;SDS011;2619;47.868;11.892;2023-04-03T15:05:12;7.07;;;3.80;;
5199;SDS011;2619;47.868;11.892;2023-04-03T15:07:40;6.90;;;4.40;;
5199;SDS011;2619;47.868;11.892;2023-04-03T15:10:24;5.00;;;4.00;;
5199;SDS011;2619;47.868;11.892;2023-04-03T15:12:51;4.33;;;3.30;;
5199;SDS011;2619;47.868;11.892;2023-04-03T15:15:18;4.87;;;3.80;;
5199;SDS011;2619;47.868;11.892;2023-04-03T15:17:45;4.93;;;4.27;;
5199;SDS011;2619;47.868;11.892;2023-04-03T15:20:16;6.33;;;4.53;;
5199;SDS011;2619;47.868;11.892;2023-04-03T15:22:43;5.63;;;3.90;;
5199;SDS011;2619;47.868;11.892;2023-04-03T15:25:09;5.70;;;4.10;;
5199;SDS011;2619;47.868;11.892;2023-04-03T15:27:35;5.60;;;4.70;;
5199;SDS011;2619;47.868;11.892;2023-04-03T15:30:03;6.37;;;4.70;;
5199;SDS011;2619;47.868;11.892;2023-04-03T15:32:30;11.13;;;5.30;;
5199;SDS011;2619;47.868;11.892;2023-04-03T15:34:56;7.43;;;4.60;;
5199;SDS011;2619;47.868;11.892;2023-04-03T15:37:22;6.77;;;4.57;;
5199;SDS011;2619;47.868;11.892;2023-04-03T15:39:48;7.63;;;4.90;;
5199;SDS011;2619;47.868;11.892;2023-04-03T15:42:14;7.07;;;4.90;;
5199;SDS011;2619;47.868;11.892;2023-04-03T15:44:39;6.77;;;5.27;;
5199;SDS011;2619;47.868;11.892;2023-04-03T15:47:05;5.60;;;4.37;;
5199;SDS011;2619;47.868;11.892;2023-04-03T15:49:34;7.77;;;5.17;;
5199;SDS011;2619;47.868;11.892;2023-04-03T15:52:00;8.13;;;5.00;;
5199;SDS011;2619;47.868;11.892;2023-04-03T15:54:26;6.67;;;4.40;;
5199;SDS011;2619;47.868;11.892;2023-04-03T15:56:52;7.07;;;4.40;;
5199;SDS011;2619;47.868;11.892;2023-04-03T15:59:18;7.17;;;4.50;;
5199;SDS011;2619;47.868;11.892;2023-04-03T16:01:44;6.60;;;4.80;;
5199;SDS011;2619;47.868;11.892;2023-04-03T16:04:10;5.80;;;4.47;;
5199;SDS011;2619;47.868;11.892;2023-04-03T16:06:37;6.47;;;4.50;;
5199;SDS011;2619;47.868;11.892;2023-04-03T16:09:03;6.20;;;4.47;;
5199;SDS011;2619;47.868;11.892;2023-04-03T16:11:29;6.93;;;4.20;;
5199;SDS011;2619;47.868;11.892;2023-04-03T16:13:55;6.47;;;4.40;;
5199;SDS011;2619;47.868;11.892;2023-04-03T16:16:21;6.43;;;4.60;;
5199;SDS011;2619;47.868;11.892;2023-04-03T16:18:48;4.37;;;3.23;;
5199;SDS011;2619;47.868;11.892;2023-04-03T16:21:14;6.33;;;4.37;;
5199;SDS011;2619;47.868;11.892;2023-04-03T16:23:42;7.20;;;3.90;;
5199;SDS011;2619;47.868;11.892;2023-04-03T16:26:08;5.40;;;3.70;;
5199;SDS011;2619;47.868;11.892;2023-04-03T16:28:35;5.80;;;4.33;;
5199;SDS011;2619;47.868;11.892;2023-04-03T16:31:01;7.27;;;3.30;;
5199;SDS011;2619;47.868;11.892;2023-04-03T16:33:27;4.23;;;3.40;;
5199;SDS011;2619;47.868;11.892;2023-04-03T16:35:53;6.40;;;4.07;;